Time;durP1;ratioP1;P1;durP2;ratioP2;P2;SDS_P1;SDS_P2;PMS_P1;PMS_P2;Temp;Humidity;BMP_temperature;BMP_pressure;BME280_temperature;BME280_humidity;BME280_pressure;Samples;Min_cycle;Max_cycle;Signal;HPM_P1;HPM_P2
2024/03/11 00:00:05;;;;;;;7.78;4.85;;;7.70;99.90;;;6.98;100.00;99706.53;4137524;28;20034;-68
2024/03/11 00:02:06;;;;;;;9.65;5.10;;;7.70;99.90;;;6.96;100.00;99709.31;4120061;28;20396;-69
2024/03/11 00:04:08;;;;;;;7.40;4.38;;;7.70;99.90;;;6.95;100.00;99702.44;4120199;28;20023;-69
2024/03/11 00:06:09;;;;;;;7.28;4.43;;;7.70;99.90;;;6.95;100.00;99712.09;4112836;28;20058;-69
2024/03/11 00:08:16;;;;;;;7.28;5.13;;;7.70;99.90;;;6.95;100.00;99706.84;4135988;28;20033;-68
2024/03/11 00:10:18;;;;;;;5.85;4.03;;;7.70;99.90;;;6.95;100.00;99705.06;4136132;28;20862;-69
2024/03/11 00:12:22;;;;;;;6.25;4.20;;;7.70;99.90;;;6.97;100.00;99710.13;4137447;28;20027;-69
2024/03/11 00:14:30;;;;;;;7.15;4.13;;;7.70;99.90;;;6.96;100.00;99706.69;4137384;28;20034;-69
2024/03/11 00:16:31;;;;;;;6.75;4.00;;;7.70;99.90;;;6.96;100.00;99701.44;4120786;28;20094;-68
2024/03/11 00:18:32;;;;;;;5.32;3.78;;;7.70;99.90;;;6.96;100.00;99700.66;4136151;28;20133;-69
2024/03/11 00:20:33;;;;;;;6.88;3.65;;;7.70;99.90;;;6.94;100.00;99692.94;4120087;28;20506;-69
2024/03/11 00:22:36;;;;;;;9.63;5.03;;;7.70;99.90;;;6.96;100.00;99703.28;4137044;28;20033;-68
2024/03/11 00:24:38;;;;;;;11.27;5.32;;;7.70;99.90;;;6.93;100.00;99698.34;4137162;28;20026;-69
2024/03/11 00:26:40;;;;;;;6.93;4.50;;;7.60;99.90;;;6.92;100.00;99701.94;4137208;28;20054;-69
2024/03/11 00:28:40;;;;;;;9.95;5.38;;;7.60;99.90;;;6.94;100.00;99706.03;4137103;28;20022;-68
2024/03/11 00:30:41;;;;;;;10.23;4.88;;;7.60;99.90;;;6.91;100.00;99695.88;4135700;28;20054;-68
2024/03/11 00:32:46;;;;;;;9.77;5.80;;;7.60;99.90;;;6.93;100.00;99709.63;4135548;28;20076;-68
2024/03/11 00:34:47;;;;;;;11.02;5.72;;;7.60;99.90;;;6.95;100.00;99712.09;4137008;28;20426;-69
2024/03/11 00:36:49;;;;;;;15.02;7.70;;;7.70;99.90;;;6.93;100.00;99709.63;4136690;28;20030;-68
2024/03/11 00:38:50;;;;;;;9.98;6.55;;;7.70;99.90;;;6.94;100.00;99705.22;4146578;28;20041;-69
2024/03/11 00:40:51;;;;;;;9.20;5.63;;;7.60;99.90;;;6.96;100.00;99713.75;4152847;28;20387;-68
2024/03/11 00:42:51;;;;;;;7.40;4.05;;;7.70;99.90;;;7.00;100.00;99712.44;4153357;28;20026;-69
2024/03/11 00:44:52;;;;;;;8.07;5.70;;;7.70;99.90;;;7.03;100.00;99720.81;4140615;28;20022;-69
2024/03/11 00:46:53;;;;;;;12.38;6.20;;;7.70;99.90;;;7.01;100.00;99714.09;4135568;28;20080;-68
2024/03/11 00:48:54;;;;;;;8.68;6.78;;;7.70;99.90;;;7.01;100.00;99721.97;4136686;28;20048;-69
2024/03/11 00:50:55;;;;;;;9.02;5.28;;;7.70;99.90;;;7.03;100.00;99720.00;4119337;28;20031;-68
2024/03/11 00:52:57;;;;;;;7.68;3.90;;;7.70;99.90;;;7.04;100.00;99721.66;4119383;28;20033;-68
2024/03/11 00:54:58;;;;;;;6.28;2.30;;;7.80;99.90;;;7.06;100.00;99720.50;4133560;28;20530;-68
2024/03/11 00:56:59;;;;;;;5.53;2.78;;;7.80;99.90;;;7.08;100.00;99722.94;4136531;28;20049;-68
2024/03/11 00:59:00;;;;;;;4.78;2.50;;;7.80;99.90;;;7.08;100.00;99723.78;4136084;28;20030;-68
2024/03/11 01:01:09;;;;;;;4.35;2.40;;;7.80;99.90;;;7.12;100.00;99726.91;4103216;29;20023;-69
2024/03/11 01:03:10;;;;;;;5.43;2.75;;;7.80;99.90;;;7.13;100.00;99726.78;4119775;28;20035;-68
2024/03/11 01:05:11;;;;;;;6.72;3.08;;;7.80;99.90;;;7.15;100.00;99735.28;4119371;28;20022;-69
2024/03/11 01:07:13;;;;;;;6.95;3.10;;;7.80;99.90;;;7.15;100.00;99732.66;4136168;28;20026;-69
2024/03/11 01:09:20;;;;;;;8.85;2.40;;;7.80;99.90;;;7.16;100.00;99736.13;4136563;28;20029;-68
2024/03/11 01:11:23;;;;;;;9.95;2.92;;;7.90;99.90;;;7.15;100.00;99729.22;4136366;28;20027;-68
2024/03/11 01:13:24;;;;;;;5.72;2.88;;;7.90;99.90;;;7.15;100.00;99727.41;4136338;28;20525;-68
2024/03/11 01:15:25;;;;;;;8.80;3.40;;;7.90;99.90;;;7.15;100.00;99727.41;4136426;28;20042;-68
2024/03/11 01:17:26;;;;;;;8.82;2.75;;;7.90;99.90;;;7.17;100.00;99729.88;4136133;28;20075;-68
2024/03/11 01:19:27;;;;;;;11.73;3.42;;;7.90;99.90;;;7.18;100.00;99737.59;4136465;28;20023;-69
2024/03/11 01:21:28;;;;;;;6.43;3.40;;;7.90;99.90;;;7.14;100.00;99741.50;4136358;28;20493;-68
2024/03/11 01:23:29;;;;;;;5.78;2.88;;;7.90;99.90;;;7.16;100.00;99736.13;4134888;28;20030;-68
2024/03/11 01:25:30;;;;;;;6.82;3.05;;;7.90;99.90;;;7.13;100.00;99732.00;4136337;28;20037;-68
2024/03/11 01:27:32;;;;;;;8.98;3.40;;;7.90;99.90;;;7.15;100.00;99735.28;4136246;28;20035;-68
2024/03/11 01:29:33;;;;;;;6.88;3.13;;;7.90;99.90;;;7.15;100.00;99735.28;4135045;28;20042;-68
2024/03/11 01:31:34;;;;;;;7.63;2.80;;;7.90;99.90;;;7.17;100.00;99743.81;4134906;28;20437;-69
2024/03/11 01:33:35;;;;;;;6.35;2.97;;;7.90;99.90;;;7.18;100.00;99748.09;4136180;28;20393;-68
2024/03/11 01:35:37;;;;;;;8.57;3.25;;;7.90;99.90;;;7.18;100.00;99742.84;4136165;28;20045;-68
2024/03/11 01:37:38;;;;;;;8.50;2.88;;;7.90;99.90;;;7.16;100.00;99744.81;4135828;28;20524;-68
2024/03/11 01:39:44;;;;;;;5.32;2.95;;;7.90;99.90;;;7.18;100.00;99742.84;4151138;28;20026;-68
2024/03/11 01:41:45;;;;;;;9.18;2.90;;;7.90;99.90;;;7.19;100.00;99751.53;4152520;28;20030;-68
2024/03/11 01:43:46;;;;;;;8.82;2.83;;;7.90;99.90;;;7.20;100.00;99750.53;4132362;28;20084;-68
2024/03/11 01:45:47;;;;;;;7.55;3.17;;;7.90;99.90;;;7.20;100.00;99747.91;4135972;28;20030;-68
2024/03/11 01:47:50;;;;;;;5.95;2.42;;;7.90;99.90;;;7.18;100.00;99744.63;4136048;28;20034;-69
2024/03/11 01:49:53;;;;;;;5.57;2.75;;;7.90;99.90;;;7.19;100.00;99749.75;4134998;28;20030;-68
2024/03/11 01:51:54;;;;;;;6.35;2.80;;;7.90;99.90;;;7.21;100.00;99753.00;4134405;28;20035;-68
2024/03/11 01:53:55;;;;;;;5.68;2.65;;;7.90;99.90;;;7.20;100.00;99750.53;4134443;28;20033;-68
2024/03/11 01:55:57;;;;;;;5.63;2.22;;;7.90;99.90;;;7.21;100.00;99754.81;4118686;28;20035;-68
2024/03/11 01:58:00;;;;;;;4.47;2.17;;;7.90;99.90;;;7.22;100.00;99756.47;4136015;28;20402;-69
2024/03/11 02:00:08;;;;;;;3.50;1.90;;;7.90;99.90;;;7.18;100.00;99742.00;4134660;28;20129;-68
2024/03/11 02:02:10;;;;;;;3.28;1.83;;;7.90;99.90;;;7.22;100.00;99756.47;4134900;28;20034;-68
2024/03/11 02:04:11;;;;;;;3.15;1.60;;;7.90;99.90;;;7.20;100.00;99756.59;4135929;28;20022;-68
2024/03/11 02:06:11;;;;;;;7.47;2.55;;;7.90;99.90;;;7.20;100.00;99748.75;4135937;28;20084;-68
2024/03/11 02:08:12;;;;;;;7.70;2.53;;;7.90;99.90;;;7.22;100.00;99759.09;4134580;28;20022;-68
2024/03/11 02:10:13;;;;;;;3.42;2.55;;;7.90;99.90;;;7.19;100.00;99751.53;4135901;28;20093;-68
2024/03/11 02:12:17;;;;;;;3.63;2.15;;;7.90;99.90;;;7.18;100.00;99744.63;4134783;28;20469;-68
2024/03/11 02:14:19;;;;;;;5.70;2.92;;;7.90;99.90;;;7.22;100.00;99757.28;4135904;28;20034;-68
2024/03/11 02:16:22;;;;;;;6.65;2.47;;;8.00;99.90;;;7.23;100.00;99765.94;4135822;28;20030;-68
2024/03/11 02:18:24;;;;;;;3.33;1.70;;;8.00;99.90;;;7.22;100.00;99761.72;4134642;28;20041;-68
2024/03/11 02:20:26;;;;;;;3.08;2.00;;;7.90;99.90;;;7.20;100.00;99759.22;4135851;28;20041;-68
2024/03/11 02:22:28;;;;;;;4.13;1.70;;;8.00;99.90;;;7.23;100.00;99768.56;4134402;28;20065;-68
2024/03/11 02:24:29;;;;;;;3.33;1.83;;;7.90;99.90;;;7.22;100.00;99765.16;4135751;28;20033;-68
2024/03/11 02:26:29;;;;;;;6.45;2.75;;;7.90;99.90;;;7.20;100.00;99769.72;4122847;28;20023;-68
2024/03/11 02:28:30;;;;;;;4.90;2.78;;;7.90;99.90;;;7.22;100.00;99773.03;4135818;28;20398;-68
2024/03/11 02:30:32;;;;;;;4.78;2.42;;;7.90;99.90;;;7.22;100.00;99770.41;4134392;28;20522;-69
2024/03/11 02:32:34;;;;;;;4.40;2.25;;;8.00;99.90;;;7.23;100.00;99777.28;4135617;28;20026;-68
2024/03/11 02:34:35;;;;;;;2.90;1.65;;;7.90;99.90;;;7.24;100.00;99778.09;4135538;28;20102;-68
2024/03/11 02:36:36;;;;;;;4.93;2.70;;;7.90;99.90;;;7.21;100.00;99778.41;4135795;28;20025;-68
2024/03/11 02:38:37;;;;;;;5.25;3.15;;;7.90;99.90;;;7.21;100.00;99775.78;4144216;28;20109;-68
2024/03/11 02:40:39;;;;;;;5.28;2.63;;;7.90;99.90;;;7.16;100.00;99773.66;4151886;28;20048;-68
2024/03/11 02:42:40;;;;;;;3.42;2.70;;;7.90;99.90;;;7.19;100.00;99783.00;4151891;28;20045;-68
2024/03/11 02:44:42;;;;;;;7.22;2.80;;;7.90;99.90;;;7.15;100.00;99772.00;4125459;28;20542;-68
2024/03/11 02:46:43;;;;;;;6.90;2.70;;;7.90;99.90;;;7.15;100.00;99777.25;4118254;28;20023;-68
2024/03/11 02:48:44;;;;;;;4.28;2.13;;;7.90;99.90;;;7.12;100.00;99782.81;4135583;28;20081;-68
2024/03/11 02:50:44;;;;;;;3.00;2.42;;;7.80;99.90;;;7.13;100.00;99784.47;4135457;28;20030;-68
2024/03/11 02:52:45;;;;;;;5.10;2.50;;;7.90;99.90;;;7.09;100.00;99783.13;4135682;28;20027;-68
2024/03/11 02:54:48;;;;;;;3.92;2.55;;;7.90;99.90;;;7.11;100.00;99785.56;4135599;28;20053;-68
2024/03/11 02:56:49;;;;;;;6.65;2.80;;;7.80;99.90;;;7.09;100.00;99792.78;4135632;28;20026;-69
2024/03/11 02:58:50;;;;;;;5.47;2.47;;;7.80;99.90;;;7.09;100.00;99793.63;4135366;28;20089;-69
2024/03/11 03:00:51;;;;;;;4.85;2.38;;;7.80;99.90;;;7.05;100.00;99796.69;4135618;28;20030;-68
2024/03/11 03:02:52;;;;;;;4.75;2.78;;;7.80;99.90;;;7.07;100.00;99800.00;4134399;28;20023;-69
2024/03/11 03:04:54;;;;;;;6.50;2.33;;;7.80;99.90;;;7.05;100.00;99792.28;4136907;28;20030;-69
2024/03/11 03:06:57;;;;;;;4.57;2.50;;;7.80;99.90;;;7.03;100.00;99786.38;4137627;28;20026;-68
2024/03/11 03:08:58;;;;;;;4.15;2.13;;;7.80;99.90;;;7.05;100.00;99791.44;4136725;28;20034;-68
2024/03/11 03:11:01;;;;;;;3.90;1.90;;;7.80;99.90;;;7.05;100.00;99797.50;4138466;28;20421;-68
2024/03/11 03:13:02;;;;;;;3.72;2.28;;;7.80;99.90;;;7.06;100.00;99803.59;4137205;28;20494;-68
2024/03/11 03:15:05;;;;;;;3.90;2.28;;;7.80;99.90;;;7.07;100.00;99806.06;4138089;28;20031;-68
2024/03/11 03:17:07;;;;;;;5.63;2.40;;;7.80;99.90;;;7.07;100.00;99806.06;4120820;28;20050;-68
2024/03/11 03:19:08;;;;;;;4.03;2.42;;;7.80;99.90;;;7.05;100.00;99805.38;4138181;28;20026;-69
2024/03/11 03:21:08;;;;;;;5.88;2.40;;;7.80;99.90;;;7.05;100.00;99804.56;4138137;28;20030;-68
2024/03/11 03:23:09;;;;;;;5.60;2.20;;;7.70;99.90;;;7.03;100.00;99809.97;4136734;28;20375;-68
2024/03/11 03:25:11;;;;;;;5.55;2.33;;;7.80;99.90;;;6.95;100.00;99802.06;4138054;28;20072;-68
2024/03/11 03:27:12;;;;;;;5.10;1.70;;;7.70;99.90;;;6.95;100.00;99811.72;4137033;28;20027;-68
2024/03/11 03:29:12;;;;;;;5.22;1.80;;;7.70;99.90;;;6.94;100.00;99817.94;4138096;28;20038;-68
2024/03/11 03:31:14;;;;;;;4.70;2.58;;;7.70;99.90;;;6.92;100.00;99825.16;4136669;28;20042;-68
2024/03/11 03:33:15;;;;;;;4.50;2.42;;;7.60;99.90;;;6.90;100.00;99822.66;4122021;28;20037;-68
2024/03/11 03:35:16;;;;;;;3.25;2.53;;;7.60;99.90;;;6.90;100.00;99829.72;4122055;28;20035;-68
2024/03/11 03:37:17;;;;;;;4.57;2.53;;;7.60;99.90;;;6.88;100.00;99826.41;4121650;28;20125;-68
2024/03/11 03:39:18;;;;;;;4.78;2.38;;;7.60;99.90;;;6.87;100.00;99832.66;4136117;28;20034;-68
2024/03/11 03:41:19;;;;;;;5.30;2.03;;;7.60;99.90;;;6.86;100.00;99834.47;4138145;28;20031;-69
2024/03/11 03:43:20;;;;;;;6.65;2.75;;;7.60;99.90;;;6.86;100.00;99836.25;4138081;28;20390;-68
2024/03/11 03:45:21;;;;;;;4.93;2.95;;;7.60;99.90;;;6.86;100.00;99841.50;4123169;28;20027;-68
2024/03/11 03:47:22;;;;;;;5.78;2.30;;;7.60;99.90;;;6.83;100.00;99839.19;4120209;28;20019;-68
2024/03/11 03:49:23;;;;;;;3.60;2.25;;;7.60;99.90;;;6.84;100.00;99846.06;4120719;28;20078;-68
2024/03/11 03:51:25;;;;;;;4.30;2.30;;;7.60;99.90;;;6.81;100.00;99839.31;4120477;28;20584;-68
2024/03/11 03:53:26;;;;;;;4.50;2.63;;;7.50;99.90;;;6.76;100.00;99848.63;4121576;28;20501;-68
2024/03/11 03:55:27;;;;;;;5.32;2.42;;;7.50;99.90;;;6.72;100.00;99852.53;4121422;28;20026;-68
2024/03/11 03:57:27;;;;;;;7.80;2.92;;;7.50;99.90;;;6.68;100.00;99855.47;4121633;28;20037;-68
2024/03/11 03:59:28;;;;;;;6.18;3.40;;;7.40;99.90;;;6.62;100.00;99850.84;4121490;28;20042;-68
2024/03/11 04:01:29;;;;;;;5.88;2.67;;;7.40;99.90;;;6.60;100.00;99865.88;4121582;28;20482;-68
2024/03/11 04:03:30;;;;;;;10.68;3.40;;;7.40;99.90;;;6.56;100.00;99861.91;4121336;28;20401;-68
2024/03/11 04:05:32;;;;;;;7.75;3.75;;;7.30;99.90;;;6.54;100.00;99869.09;4120067;28;20395;-68
2024/03/11 04:07:32;;;;;;;12.77;3.70;;;7.30;99.90;;;6.54;100.00;99871.72;4120110;28;20106;-68
2024/03/11 04:09:33;;;;;;;8.77;3.92;;;7.30;99.90;;;6.52;100.00;99873.66;4121407;28;20031;-68
2024/03/11 04:11:37;;;;;;;11.50;4.72;;;7.30;99.90;;;6.53;100.00;99874.50;4121482;28;20023;-68
2024/03/11 04:13:38;;;;;;;7.20;3.42;;;7.30;99.90;;;6.57;100.00;99871.41;4120408;28;20038;-68
2024/03/11 04:15:42;;;;;;;6.03;3.50;;;7.30;99.90;;;6.58;100.00;99873.06;4120729;28;20598;-68
2024/03/11 04:17:44;;;;;;;6.90;3.65;;;7.30;99.90;;;6.58;100.00;99872.25;4120304;28;20031;-68
2024/03/11 04:19:46;;;;;;;4.85;3.00;;;7.30;99.90;;;6.53;100.00;99866.63;4120995;28;20070;-68
2024/03/11 04:21:47;;;;;;;4.90;2.95;;;7.20;99.90;;;6.44;100.00;99868.38;4121262;28;20402;-68
2024/03/11 04:23:50;;;;;;;4.53;3.10;;;7.20;99.90;;;6.37;100.00;99880.41;4120955;28;20037;-68
2024/03/11 04:25:51;;;;;;;4.55;3.25;;;7.10;99.90;;;6.30;100.00;99886.41;4121273;28;20446;-68
2024/03/11 04:27:53;;;;;;;4.82;3.20;;;7.00;99.90;;;6.24;100.00;99893.06;4120966;28;20060;-68
2024/03/11 04:29:54;;;;;;;5.63;3.60;;;7.00;99.90;;;6.15;100.00;99888.72;4121093;28;20066;-68
2024/03/11 04:31:57;;;;;;;8.90;4.00;;;7.00;99.90;;;6.17;100.00;99893.81;4135098;28;20510;-69
2024/03/11 04:33:58;;;;;;;9.95;3.63;;;6.90;99.90;;;6.13;100.00;99899.34;4121116;28;20043;-68
2024/03/11 04:36:00;;;;;;;7.90;3.38;;;6.90;99.90;;;6.07;100.00;99906.94;4136890;28;20034;-69
2024/03/11 04:38:08;;;;;;;10.07;3.45;;;6.80;99.90;;;6.05;100.00;99911.53;4139921;28;20033;-68
2024/03/11 04:40:10;;;;;;;8.27;3.42;;;6.80;99.90;;;6.02;100.00;99917.88;4141804;28;20022;-69
2024/03/11 04:42:12;;;;;;;5.43;3.53;;;6.80;99.90;;;6.05;100.00;99928.06;4136850;28;20026;-68
2024/03/11 04:44:14;;;;;;;7.20;2.85;;;6.80;99.90;;;6.07;100.00;99923.50;4136705;28;20049;-68
2024/03/11 04:46:15;;;;;;;10.88;3.55;;;6.80;99.90;;;6.11;100.00;99926.63;4136884;28;20026;-68
2024/03/11 04:48:19;;;;;;;6.28;3.55;;;6.90;99.90;;;6.13;100.00;99932.53;4136720;28;20033;-68
2024/03/11 04:50:27;;;;;;;5.28;3.28;;;6.90;99.90;;;6.14;100.00;99942.06;4136951;28;20026;-68
2024/03/11 04:52:28;;;;;;;6.88;4.05;;;6.90;99.90;;;6.12;100.00;99944.00;4135554;28;20429;-69
2024/03/11 04:54:29;;;;;;;6.45;3.63;;;6.80;99.90;;;6.06;100.00;99942.78;4136736;28;20027;-68
2024/03/11 04:56:31;;;;;;;6.53;3.80;;;6.80;99.90;;;6.00;100.00;99942.56;4136836;28;20027;-68
2024/03/11 04:58:31;;;;;;;5.97;3.85;;;6.80;99.90;;;5.94;100.00;99951.78;4136571;28;20057;-68
2024/03/11 05:00:32;;;;;;;7.35;3.88;;;6.70;99.90;;;5.83;100.00;99946.72;4136426;28;20030;-69
2024/03/11 05:02:38;;;;;;;5.68;3.95;;;6.70;99.90;;;5.82;100.00;99946.88;4135513;28;20027;-68
2024/03/11 05:04:39;;;;;;;6.03;3.85;;;6.60;99.90;;;5.79;100.00;99953.25;4136551;28;20029;-69
2024/03/11 05:06:40;;;;;;;9.95;4.00;;;6.60;99.90;;;5.76;100.00;99955.31;4136464;28;20031;-69
2024/03/11 05:08:41;;;;;;;6.03;4.32;;;6.50;99.90;;;5.66;100.00;99951.91;4134721;28;20025;-69
2024/03/11 05:10:41;;;;;;;7.47;3.80;;;6.40;99.90;;;5.59;100.00;99955.09;4136350;28;20018;-69
2024/03/11 05:12:43;;;;;;;6.07;3.50;;;6.30;99.90;;;5.54;100.00;99959.13;4136517;28;20018;-69
2024/03/11 05:14:44;;;;;;;4.32;3.10;;;6.30;99.90;;;5.47;100.00;99966.69;4136067;28;20037;-68
2024/03/11 05:16:45;;;;;;;7.57;3.78;;;6.20;99.90;;;5.44;100.00;99980.06;4139364;28;20026;-68
2024/03/11 05:18:46;;;;;;;5.47;3.58;;;6.20;99.90;;;5.41;100.00;99977.72;4152770;28;20029;-69
2024/03/11 05:20:47;;;;;;;6.97;3.28;;;6.10;99.90;;;5.43;100.00;99978.44;4135409;28;20018;-68
2024/03/11 05:22:49;;;;;;;6.85;4.25;;;6.10;99.90;;;5.49;100.00;99987.50;4152270;28;20097;-68
2024/03/11 05:24:50;;;;;;;7.80;3.70;;;6.10;99.90;;;5.54;100.00;99991.34;4144688;28;20030;-68
2024/03/11 05:26:51;;;;;;;5.22;3.25;;;6.20;99.90;;;5.59;100.00;99999.56;4134429;28;20026;-68
2024/03/11 05:28:52;;;;;;;5.88;3.35;;;6.20;99.90;;;5.62;100.00;100011.53;4119010;28;20022;-68
2024/03/11 05:30:53;;;;;;;6.80;3.33;;;6.20;99.90;;;5.65;100.00;100015.66;4136089;28;20050;-69
2024/03/11 05:32:56;;;;;;;7.38;3.63;;;6.30;99.90;;;5.70;100.00;100023.94;4136135;28;20027;-68
2024/03/11 05:34:56;;;;;;;4.65;3.13;;;6.30;99.90;;;5.71;100.00;100017.69;4136378;28;20113;-68
2024/03/11 05:36:57;;;;;;;5.90;3.75;;;6.30;99.90;;;5.71;100.00;100015.91;4136342;28;20026;-68
2024/03/11 05:38:58;;;;;;;4.20;3.03;;;6.40;99.90;;;5.70;100.00;100023.94;4148293;28;20042;-68
2024/03/11 05:40:59;;;;;;;5.25;3.03;;;6.40;99.90;;;5.65;100.00;100024.34;4152214;28;20026;-68
2024/03/11 05:43:00;;;;;;;7.88;3.10;;;6.40;99.90;;;5.64;100.00;100027.94;4152535;28;20482;-68
2024/03/11 05:45:02;;;;;;;11.57;4.35;;;6.40;99.90;;;5.65;100.00;100039.19;4143438;28;20022;-68
2024/03/11 05:47:04;;;;;;;6.55;3.70;;;6.30;99.90;;;5.63;100.00;100039.34;4136049;28;20026;-68
2024/03/11 05:49:13;;;;;;;6.43;3.20;;;6.30;99.90;;;5.64;100.00;100045.41;4135877;28;20517;-68
2024/03/11 05:51:14;;;;;;;6.13;4.07;;;6.30;99.90;;;5.58;100.00;100050.22;4136162;28;20026;-68
2024/03/11 05:53:16;;;;;;;5.13;3.63;;;6.30;99.90;;;5.53;100.00;100049.84;4135929;28;20030;-68
2024/03/11 05:55:20;;;;;;;6.78;4.63;;;6.30;99.90;;;5.45;100.00;100041.88;4135866;28;20502;-68
2024/03/11 05:57:29;;;;;;;8.00;3.58;;;6.20;99.90;;;5.38;100.00;100053.03;4136144;28;20041;-69
2024/03/11 05:59:31;;;;;;;5.40;3.60;;;6.10;99.90;;;5.30;100.00;100065.97;4134681;28;20030;-68
2024/03/11 06:01:32;;;;;;;5.97;3.17;;;6.10;99.90;;;5.19;100.00;100069.56;4136074;28;20061;-68
2024/03/11 06:03:32;;;;;;;6.47;3.63;;;5.90;99.90;;;5.13;100.00;100074.53;4134600;28;20081;-69
2024/03/11 06:05:33;;;;;;;6.65;3.40;;;5.90;99.90;;;5.05;100.00;100071.78;4135844;28;20081;-68
2024/03/11 06:07:34;;;;;;;5.65;3.42;;;5.80;99.90;;;5.05;100.00;100083.03;4135730;28;20085;-68
2024/03/11 06:09:37;;;;;;;6.95;3.95;;;5.80;99.90;;;5.06;100.00;100081.25;4134656;28;20038;-68
2024/03/11 06:11:40;;;;;;;9.20;4.30;;;5.80;99.90;;;5.02;100.00;100078.06;4118826;28;20031;-68
2024/03/11 06:13:41;;;;;;;11.38;5.18;;;5.70;99.90;;;4.99;100.00;100094.03;4136065;28;20066;-68
2024/03/11 06:15:42;;;;;;;9.90;4.22;;;5.70;99.90;;;4.99;100.00;100096.66;4135993;28;20077;-68
2024/03/11 06:17:43;;;;;;;9.43;4.85;;;5.70;99.90;;;4.97;100.00;100103.81;4135817;28;20042;-68
2024/03/11 06:19:44;;;;;;;8.85;5.40;;;5.60;99.90;;;4.92;100.00;100103.41;4135649;28;20089;-68
2024/03/11 06:21:45;;;;;;;15.18;6.00;;;5.60;99.90;;;4.87;100.00;100108.19;4135927;28;20031;-68
2024/03/11 06:23:48;;;;;;;10.18;5.82;;;5.60;99.90;;;4.86;100.00;100115.22;4135684;28;20034;-68
2024/03/11 06:25:49;;;;;;;10.20;5.15;;;5.50;99.90;;;4.83;100.00;100119.88;4135712;28;20031;-68
2024/03/11 06:27:51;;;;;;;6.60;4.28;;;5.50;99.90;;;4.74;100.00;100128.53;4135746;28;20022;-68
2024/03/11 06:29:53;;;;;;;6.03;4.05;;;5.50;99.90;;;4.66;100.00;100139.63;4134748;28;20098;-68
2024/03/11 06:31:55;;;;;;;7.18;4.43;;;5.40;99.90;;;4.62;100.00;100142.66;4135520;28;20173;-68
2024/03/11 06:33:56;;;;;;;9.00;5.35;;;5.40;99.90;;;4.58;100.00;100147.31;4135929;28;20398;-68
2024/03/11 06:35:57;;;;;;;9.80;6.00;;;5.30;99.90;;;4.57;100.00;100137.00;4135583;28;20028;-68
2024/03/11 06:37:57;;;;;;;10.45;5.82;;;5.20;99.90;;;4.59;100.00;100146.34;4139346;28;20030;-68
2024/03/11 06:39:58;;;;;;;9.13;5.43;;;5.30;99.90;;;4.61;100.00;100141.00;4137322;28;20115;-68
2024/03/11 06:42:01;;;;;;;10.38;5.05;;;5.30;99.90;;;4.60;100.00;100157.63;4121540;28;20078;-68
2024/03/11 06:44:02;;;;;;;8.20;5.32;;;5.30;99.90;;;4.59;100.00;100163.81;4138597;28;20105;-68
2024/03/11 06:46:03;;;;;;;12.48;5.40;;;5.30;99.90;;;4.48;100.00;100165.53;4126099;28;20026;-68
2024/03/11 06:48:04;;;;;;;4.63;3.42;;;5.30;99.90;;;4.39;100.00;100163.72;4138601;28;20034;-68
2024/03/11 06:50:06;;;;;;;7.53;5.15;;;5.20;99.90;;;4.36;100.00;100171.00;4138762;28;20077;-68
2024/03/11 06:52:08;;;;;;;9.15;5.35;;;5.10;99.90;;;4.32;100.00;100169.59;4138355;28;20026;-68
2024/03/11 06:54:09;;;;;;;9.65;5.55;;;5.00;99.90;;;4.33;100.00;100174.69;4138538;28;20032;-68
2024/03/11 06:56:11;;;;;;;7.00;4.05;;;5.00;99.90;;;4.34;100.00;100175.50;4138528;28;20026;-68
2024/03/11 06:58:12;;;;;;;6.45;4.25;;;5.10;99.90;;;4.30;100.00;100182.78;4138502;28;20037;-68
2024/03/11 07:00:19;;;;;;;5.47;4.18;;;5.10;99.90;;;4.24;100.00;100183.28;4138377;28;20030;-68
2024/03/11 07:02:20;;;;;;;15.27;5.47;;;5.00;99.90;;;4.25;100.00;100199.78;4138517;28;20036;-68
2024/03/11 07:04:21;;;;;;;8.25;5.22;;;5.00;99.90;;;4.27;100.00;100206.53;4138467;28;20022;-69
2024/03/11 07:06:23;;;;;;;9.55;5.47;;;5.00;99.90;;;4.31;100.00;100204.50;4135945;28;20037;-68
2024/03/11 07:08:24;;;;;;;11.02;6.25;;;5.00;99.90;;;4.34;100.00;100201.63;4137349;28;20019;-69
2024/03/11 07:10:25;;;;;;;9.40;5.32;;;5.10;99.90;;;4.39;100.00;100215.13;4154658;28;20038;-68
2024/03/11 07:12:26;;;;;;;10.27;5.72;;;5.10;99.90;;;4.47;100.00;100210.91;4154578;28;20029;-68
2024/03/11 07:14:27;;;;;;;8.07;5.90;;;5.20;99.90;;;4.55;100.00;100219.88;4144650;28;20030;-68
2024/03/11 07:16:31;;;;;;;9.25;6.25;;;5.20;99.90;;;4.59;100.00;100222.09;4134190;28;20034;-68
2024/03/11 07:18:33;;;;;;;12.60;6.70;;;5.30;99.90;;;4.68;100.00;100221.31;4154518;28;20045;-68
2024/03/11 07:20:34;;;;;;;11.93;6.65;;;5.40;99.90;;;4.83;100.00;100237.47;4123143;28;20038;-68
2024/03/11 07:22:35;;;;;;;15.27;6.80;;;5.50;99.90;;;4.95;100.00;100244.25;4138000;28;20030;-68
2024/03/11 07:24:37;;;;;;;8.95;6.45;;;5.60;99.90;;;5.05;100.00;100241.69;4138030;28;20023;-68
2024/03/11 07:26:38;;;;;;;9.05;6.90;;;5.70;99.90;;;5.10;100.00;100248.16;4138197;28;20026;-68
2024/03/11 07:28:40;;;;;;;11.02;6.68;;;5.80;99.90;;;5.23;100.00;100259.19;4138217;28;20042;-68
2024/03/11 07:30:40;;;;;;;13.50;7.95;;;5.90;99.90;;;5.42;100.00;100259.25;4137923;28;20506;-68
2024/03/11 07:32:44;;;;;;;11.00;7.70;;;6.00;99.90;;;5.64;100.00;100266.03;4137972;28;20057;-68
2024/03/11 07:34:45;;;;;;;13.73;7.78;;;6.20;99.90;;;5.81;100.00;100264.50;4138165;28;20383;-68
2024/03/11 07:36:46;;;;;;;12.07;7.35;;;6.40;99.90;;;5.97;100.00;100270.06;4136712;28;20078;-68
2024/03/11 07:38:47;;;;;;;12.82;7.30;;;6.50;99.90;;;6.16;100.00;100277.91;4148271;28;20064;-67
2024/03/11 07:40:48;;;;;;;10.60;6.82;;;6.60;99.90;;;6.29;100.00;100275.00;4154027;28;20571;-67
2024/03/11 07:42:49;;;;;;;10.55;7.47;;;6.80;99.90;;;6.40;100.00;100267.81;4154326;28;20039;-68
2024/03/11 07:44:51;;;;;;;9.65;6.32;;;6.90;99.90;;;6.54;100.00;100274.41;4131155;28;20015;-68
2024/03/11 07:46:52;;;;;;;8.80;6.28;;;7.00;99.90;;;6.54;100.00;100282.28;4120588;28;20113;-68
2024/03/11 07:48:54;;;;;;;10.13;6.70;;;7.10;99.90;;;6.52;100.00;100292.88;4137715;28;20026;-68
2024/03/11 07:50:55;;;;;;;9.13;6.20;;;7.10;99.90;;;6.54;100.00;100298.78;4137103;28;20022;-68
2024/03/11 07:52:56;;;;;;;10.38;5.95;;;7.10;99.90;;;6.55;100.00;100291.75;4120072;28;20031;-68
2024/03/11 07:54:57;;;;;;;9.95;5.47;;;7.10;99.90;;;6.56;100.00;100296.06;4136821;28;20025;-68
2024/03/11 07:56:57;;;;;;;13.35;6.15;;;7.20;99.90;;;6.62;100.00;100301.56;4136806;28;20022;-68
2024/03/11 07:58:58;;;;;;;7.72;5.22;;;7.20;99.90;;;6.68;100.00;100300.16;4137515;28;20022;-68
2024/03/11 08:00:59;;;;;;;6.68;4.55;;;7.30;99.90;;;6.78;100.00;100308.00;4137618;28;20029;-68
2024/03/11 08:03:00;;;;;;;7.75;4.45;;;7.30;99.90;;;6.82;100.00;100310.19;4137587;28;20026;-68
2024/03/11 08:05:02;;;;;;;6.18;4.72;;;7.40;99.90;;;6.86;100.00;100322.06;4137336;28;20022;-68
2024/03/11 08:07:03;;;;;;;9.27;5.10;;;7.40;99.90;;;6.82;100.00;100325.09;4137027;28;20030;-68
2024/03/11 08:09:07;;;;;;;6.40;4.80;;;7.40;99.90;;;6.74;100.00;100333.66;4137302;28;20589;-68
2024/03/11 08:11:10;;;;;;;10.80;5.30;;;7.40;99.90;;;6.76;100.00;100330.91;4137582;28;20109;-68
2024/03/11 08:13:11;;;;;;;7.97;4.15;;;7.40;99.90;;;6.73;100.00;100341.66;4137294;28;20107;-68
2024/03/11 08:15:14;;;;;;;7.18;4.88;;;7.40;99.90;;;6.73;100.00;100341.66;4137350;28;20026;-68
2024/03/11 08:17:15;;;;;;;6.03;3.92;;;7.40;99.90;;;6.78;100.00;100342.09;4136285;28;20069;-68
2024/03/11 08:19:16;;;;;;;4.70;3.90;;;7.50;99.90;;;6.87;100.00;100336.00;4137327;28;20066;-68
2024/03/11 08:21:17;;;;;;;7.55;3.95;;;7.50;99.90;;;7.00;100.00;100342.56;4136153;28;20050;-68
2024/03/11 08:23:18;;;;;;;5.85;4.00;;;7.60;99.90;;;7.12;100.00;100353.69;4137174;28;20280;-68
2024/03/11 08:25:27;;;;;;;7.25;4.15;;;7.70;99.90;;;7.27;100.00;100346.19;4135927;28;20469;-68
2024/03/11 08:27:28;;;;;;;8.45;3.88;;;7.90;99.90;;;7.51;100.00;100355.19;4136200;28;20457;-68
2024/03/11 08:29:31;;;;;;;7.32;3.67;;;8.00;99.90;;;7.54;100.00;100362.78;4137066;28;20034;-68
2024/03/11 08:31:33;;;;;;;7.53;4.45;;;8.20;99.90;;;7.69;100.00;100361.31;4137001;28;20053;-68
2024/03/11 08:33:35;;;;;;;8.32;3.70;;;8.30;99.90;;;7.84;100.00;100358.19;4137211;28;20037;-68